Time;durP1;ratioP1;P1;durP2;ratioP2;P2;SDS_P1;SDS_P2;PMS_P1;PMS_P2;Temp;Humidity;BMP_temperature;BMP_pressure;BME280_temperature;BME280_humidity;BME280_pressure;Samples;Min_cycle;Max_cycle;Signal;HPM_P1;HPM_P2
2021/01/06 00:00:19;;;;;;;;;;;;;;;;;;5059326;28;20454;-87
2021/01/06 00:02:45;;;;;;;;;;;;;;;;;;5043360;28;20399;-89
2021/01/06 00:05:12;;;;;;;;;;;;;;;;;;5038932;28;20407;-88
2021/01/06 00:07:38;;;;;;;;;;;;;;;;;;5039479;28;20387;-88
2021/01/06 00:10:05;;;;;;;;;;;;;;;;;;5040628;28;20402;-87
2021/01/06 00:12:31;;;;;;;;;;;;;;;;;;5040615;28;20827;-87
2021/01/06 00:14:59;;;;;;;;;;;;;;;;;;5039730;28;20407;-87
2021/01/06 00:17:25;;;;;;;;;;;;;;;;;;5040135;28;20440;-87
2021/01/06 00:19:51;;;;;;;;;;;;;;;;;;5040087;28;20418;-86
2021/01/06 00:22:18;;;;;;;;;;;;;;;;;;5039252;28;20391;-87
2021/01/06 00:24:44;;;;;;;;;;;;;;;;;;5041617;28;20917;-86
2021/01/06 00:27:11;;;;;;;;;;;;;;;;;;5041733;28;20383;-87
2021/01/06 00:29:40;;;;;;;;;;;;;;;;;;5041906;28;20389;-86
2021/01/06 00:32:06;;;;;;;;;;;;;;;;;;5034326;28;20407;-87
2021/01/06 00:34:32;;;;;;;;;;;;;;;;;;5040299;28;20395;-87
2021/01/06 00:36:59;;;;;;;;;;;;;;;;;;5043934;28;20451;-85
2021/01/06 00:39:25;;;;;;;;;;;;;;;;;;5049759;28;20421;-85
2021/01/06 00:41:52;;;;;;;;;;;;;;;;;;5050263;28;20850;-86
2021/01/06 00:44:18;;;;;;;;;;;;;;;;;;5041305;28;20411;-86
2021/01/06 00:46:44;;;;;;;;;;;;;;;;;;5041414;28;20961;-87
2021/01/06 00:49:11;;;;;;;;;;;;;;;;;;5027752;28;20393;-87
2021/01/06 00:51:37;;;;;;;;;;;;;;;;;;5034043;28;20382;-87
2021/01/06 00:54:03;;;;;;;;;;;;;;;;;;5041587;28;20851;-86
2021/01/06 00:56:30;;;;;;;;;;;;;;;;;;5031932;28;20390;-87
2021/01/06 00:58:56;;;;;;;;;;;;;;;;;;5036804;28;20870;-87
2021/01/06 01:01:23;;;;;;;;;;;;;;;;;;5040715;28;20383;-87
2021/01/06 01:03:49;;;;;;;;;;;;;;;;;;5053115;28;20391;-85
2021/01/06 01:06:15;;;;;;;;;;;;;;;;;;5043739;28;20433;-86
2021/01/06 01:08:42;;;;;;;;;;;;;;;;;;5017346;28;20763;-85
2021/01/06 01:11:08;;;;;;;;;;;;;;;;;;5017100;28;20389;-86
2021/01/06 01:13:35;;;;;;;;;;;;;;;;;;5030117;28;20416;-85
2021/01/06 01:16:01;;;;;;;;;;;;;;;;;;5035963;28;20411;-86
2021/01/06 01:18:27;;;;;;;;;;;;;;;;;;5036384;28;20403;-86
2021/01/06 01:20:54;;;;;;;;;;;;;;;;;;5047837;28;20824;-87
2021/01/06 01:23:20;;;;;;;;;;;;;;;;;;5042482;28;20387;-88
2021/01/06 01:25:46;;;;;;;;;;;;;;;;;;5025170;28;20425;-87
2021/01/06 01:28:13;;;;;;;;;;;;;;;;;;5032708;28;20389;-86
2021/01/06 01:30:39;;;;;;;;;;;;;;;;;;5047630;28;20383;-87
2021/01/06 01:33:06;;;;;;;;;;;;;;;;;;5043946;28;20383;-87
2021/01/06 01:35:32;;;;;;;;;;;;;;;;;;5050385;28;20403;-86
2021/01/06 01:37:58;;;;;;;;;;;;;;;;;;5035534;28;20413;-85
2021/01/06 01:40:25;;;;;;;;;;;;;;;;;;5040588;28;20391;-86
2021/01/06 01:42:51;;;;;;;;;;;;;;;;;;5039994;28;20390;-85
2021/01/06 01:45:17;;;;;;;;;;;;;;;;;;5037473;28;20403;-87
2021/01/06 01:47:44;;;;;;;;;;;;;;;;;;5040814;28;20383;-84
2021/01/06 01:50:10;;;;;;;;;;;;;;;;;;5041757;28;20391;-85
2021/01/06 01:52:37;;;;;;;;;;;;;;;;;;5042891;28;20850;-85
2021/01/06 01:55:03;;;;;;;;;;;;;;;;;;5049704;28;20407;-84
2021/01/06 01:57:29;;;;;;;;;;;;;;;;;;5053207;28;20386;-85
2021/01/06 01:59:56;;;;;;;;;;;;;;;;;;5036167;28;20416;-86
2021/01/06 02:02:22;;;;;;;;;;;;;;;;;;5024344;28;20785;-86
2021/01/06 02:04:49;;;;;;;;;;;;;;;;;;5039548;28;20407;-88
2021/01/06 02:07:15;;;;;;;;;;;;;;;;;;5041279;28;20394;-88
2021/01/06 02:09:41;;;;;;;;;;;;;;;;;;5041438;28;20781;-88
2021/01/06 02:12:08;;;;;;;;;;;;;;;;;;5040242;28;20390;-88
2021/01/06 02:14:36;;;;;;;;;;;;;;;;;;5034849;28;20420;-88
2021/01/06 02:17:04;;;;;;;;;;;;;;;;;;5032791;28;20395;-86
2021/01/06 02:19:30;;;;;;;;;;;;;;;;;;5027216;28;20405;-87
2021/01/06 02:21:57;;;;;;;;;;;;;;;;;;5029207;28;20391;-87
2021/01/06 02:24:24;;;;;;;;;;;;;;;;;;5030728;28;20443;-86
2021/01/06 02:26:50;;;;;;;;;;;;;;;;;;5023208;28;20447;-86
2021/01/06 02:29:17;;;;;;;;;;;;;;;;;;5027292;28;20437;-85
2021/01/06 02:31:43;;;;;;;;;;;;;;;;;;5042964;28;20391;-87
2021/01/06 02:34:10;;;;;;;;;;;;;;;;;;5043300;28;20379;-86
2021/01/06 02:36:36;;;;;;;;;;;;;;;;;;5043027;28;20838;-86
2021/01/06 02:39:02;;;;;;;;;;;;;;;;;;5042229;28;20407;-85
2021/01/06 02:41:29;;;;;;;;;;;;;;;;;;5047233;28;20414;-85
2021/01/06 02:43:55;;;;;;;;;;;;;;;;;;5037242;28;20386;-86
2021/01/06 02:46:22;;;;;;;;;;;;;;;;;;5049798;28;20399;-86
2021/01/06 02:48:48;;;;;;;;;;;;;;;;;;5057630;28;20387;-86
2021/01/06 02:51:14;;;;;;;;;;;;;;;;;;5051956;28;20385;-86
2021/01/06 02:53:41;;;;;;;;;;;;;;;;;;5043127;28;20406;-86
2021/01/06 02:56:07;;;;;;;;;;;;;;;;;;5042137;28;20891;-87
2021/01/06 02:58:34;;;;;;;;;;;;;;;;;;5034888;28;20409;-87
2021/01/06 03:01:00;;;;;;;;;;;;;;;;;;5050143;28;20746;-85
2021/01/06 03:03:26;;;;;;;;;;;;;;;;;;5048586;28;20391;-86
2021/01/06 03:05:53;;;;;;;;;;;;;;;;;;5046407;28;20403;-85
2021/01/06 03:08:19;;;;;;;;;;;;;;;;;;5046180;28;20387;-85
2021/01/06 03:10:46;;;;;;;;;;;;;;;;;;5058014;28;20417;-85
2021/01/06 03:13:12;;;;;;;;;;;;;;;;;;5053256;28;20389;-86
2021/01/06 03:15:38;;;;;;;;;;;;;;;;;;5037406;28;20394;-85
2021/01/06 03:18:05;;;;;;;;;;;;;;;;;;5049307;28;20410;-85
2021/01/06 03:20:31;;;;;;;;;;;;;;;;;;5056543;28;20387;-85
2021/01/06 03:22:58;;;;;;;;;;;;;;;;;;5057127;28;20390;-85
2021/01/06 03:25:24;;;;;;;;;;;;;;;;;;5042584;28;20422;-84
2021/01/06 03:27:50;;;;;;;;;;;;;;;;;;5040671;28;20394;-84
2021/01/06 03:30:17;;;;;;;;;;;;;;;;;;5040233;28;20384;-85
2021/01/06 03:32:51;;;;;;;;;;;;;;;;;;5040270;28;20413;-85
2021/01/06 03:35:18;;;;;;;;;;;;;;;;;;5041574;28;20414;-84
2021/01/06 03:37:44;;;;;;;;;;;;;;;;;;5047212;28;20403;-85
2021/01/06 03:40:11;;;;;;;;;;;;;;;;;;5059924;28;20395;-84
2021/01/06 03:42:37;;;;;;;;;;;;;;;;;;5060048;28;20417;-85
2021/01/06 03:45:03;;;;;;;;;;;;;;;;;;5048233;28;20391;-86
2021/01/06 03:47:31;;;;;;;;;;;;;;;;;;5054115;28;20395;-86
2021/01/06 03:49:57;;;;;;;;;;;;;;;;;;5040719;28;20415;-87
2021/01/06 03:52:23;;;;;;;;;;;;;;;;;;5039617;28;20391;-86
2021/01/06 03:54:50;;;;;;;;;;;;;;;;;;5037667;28;20932;-86
2021/01/06 03:57:16;;;;;;;;;;;;;;;;;;5035617;28;20389;-87
2021/01/06 03:59:43;;;;;;;;;;;;;;;;;;5020427;28;20410;-85
2021/01/06 04:02:09;;;;;;;;;;;;;;;;;;5028975;28;20803;-86
2021/01/06 04:04:36;;;;;;;;;;;;;;;;;;5038570;28;20399;-85
2021/01/06 04:07:02;;;;;;;;;;;;;;;;;;5039218;28;20401;-86
2021/01/06 04:09:28;;;;;;;;;;;;;;;;;;5038555;28;20395;-87
2021/01/06 04:11:55;;;;;;;;;;;;;;;;;;5034765;28;20476;-87
2021/01/06 04:14:21;;;;;;;;;;;;;;;;;;5031834;28;20821;-87
2021/01/06 04:16:48;;;;;;;;;;;;;;;;;;5037862;28;20449;-87
2021/01/06 04:19:14;;;;;;;;;;;;;;;;;;5037209;28;20415;-87
2021/01/06 04:21:40;;;;;;;;;;;;;;;;;;5037869;28;20732;-87
2021/01/06 04:24:10;;;;;;;;;;;;;;;;;;5018655;28;20389;-87
2021/01/06 04:26:38;;;;;;;;;;;;;;;;;;5018909;28;20838;-87
2021/01/06 04:29:05;;;;;;;;;;;;;;;;;;5023315;28;20406;-87
2021/01/06 04:31:31;;;;;;;;;;;;;;;;;;5039003;28;20391;-86
2021/01/06 04:33:57;;;;;;;;;;;;;;;;;;5038443;28;20387;-87
2021/01/06 04:36:24;;;;;;;;;;;;;;;;;;5039378;28;20407;-88
2021/01/06 04:38:50;;;;;;;;;;;;;;;;;;5039281;28;20474;-87
2021/01/06 04:41:17;;;;;;;;;;;;;;;;;;5040548;28;20387;-87
2021/01/06 04:43:43;;;;;;;;;;;;;;;;;;5041739;28;20387;-88
2021/01/06 04:46:09;;;;;;;;;;;;;;;;;;5044446;28;20927;-87
2021/01/06 04:48:36;;;;;;;;;;;;;;;;;;5054377;28;20391;-88
2021/01/06 04:51:02;;;;;;;;;;;;;;;;;;5037941;28;20376;-87
2021/01/06 04:53:29;;;;;;;;;;;;;;;;;;5047155;28;20383;-87
2021/01/06 04:55:55;;;;;;;;;;;;;;;;;;5040139;28;20402;-88
2021/01/06 04:58:21;;;;;;;;;;;;;;;;;;5036872;28;20469;-88
2021/01/06 05:00:49;;;;;;;;;;;;;;;;;;5036913;28;20395;-87
2021/01/06 05:03:15;;;;;;;;;;;;;;;;;;5041316;28;20382;-87
2021/01/06 05:05:42;;;;;;;;;;;;;;;;;;5040551;28;20459;-87
2021/01/06 05:08:08;;;;;;;;;;;;;;;;;;5038200;28;20390;-87
2021/01/06 05:10:34;;;;;;;;;;;;;;;;;;5037745;28;20386;-88
2021/01/06 05:13:01;;;;;;;;;;;;;;;;;;5038131;28;20390;-87
2021/01/06 05:15:27;;;;;;;;;;;;;;;;;;5045507;28;20399;-88
2021/01/06 05:17:54;;;;;;;;;;;;;;;;;;5037268;28;20391;-88
2021/01/06 05:20:20;;;;;;;;;;;;;;;;;;5042610;28;20379;-86
2021/01/06 05:22:47;;;;;;;;;;;;;;;;;;5058295;28;20378;-87
2021/01/06 05:25:13;;;;;;;;;;;;;;;;;;5043022;28;20418;-88
2021/01/06 05:27:40;;;;;;;;;;;;;;;;;;5037271;28;20403;-88
2021/01/06 05:30:06;;;;;;;;;;;;;;;;;;5038146;28;20806;-88
2021/01/06 05:32:38;;;;;;;;;;;;;;;;;;5030249;28;20457;-88
2021/01/06 05:35:05;;;;;;;;;;;;;;;;;;5043850;28;20406;-87
2021/01/06 05:37:31;;;;;;;;;;;;;;;;;;5043175;28;20409;-88
2021/01/06 05:39:58;;;;;;;;;;;;;;;;;;5036452;28;20523;-88
2021/01/06 05:42:24;;;;;;;;;;;;;;;;;;5041422;28;20846;-87
2021/01/06 05:44:50;;;;;;;;;;;;;;;;;;5041173;28;20399;-87
2021/01/06 05:47:17;;;;;;;;;;;;;;;;;;5041754;28;20394;-87
2021/01/06 05:49:43;;;;;;;;;;;;;;;;;;5041122;28;20442;-87
2021/01/06 05:52:10;;;;;;;;;;;;;;;;;;5041943;28;20387;-87
2021/01/06 05:54:36;;;;;;;;;;;;;;;;;;5043090;28;20403;-87
2021/01/06 05:57:03;;;;;;;;;;;;;;;;;;5043566;28;20390;-87
2021/01/06 05:59:30;;;;;;;;;;;;;;;;;;5043394;28;20426;-88
2021/01/06 06:01:56;;;;;;;;;;;;;;;;;;5046549;28;20445;-86
2021/01/06 06:04:22;;;;;;;;;;;;;;;;;;5045196;28;20806;-87
2021/01/06 06:06:49;;;;;;;;;;;;;;;;;;5043453;28;20433;-88
2021/01/06 06:09:17;;;;;;;;;;;;;;;;;;5042026;28;20442;-87
2021/01/06 06:11:43;;;;;;;;;;;;;;;;;;5040084;28;20391;-86
2021/01/06 06:14:09;;;;;;;;;;;;;;;;;;5034714;28;20391;-84
2021/01/06 06:16:36;;;;;;;;;;;;;;;;;;5041238;28;20386;-87
2021/01/06 06:19:03;;;;;;;;;;;;;;;;;;5025883;28;20980;-87
2021/01/06 06:21:30;;;;;;;;;;;;;;;;;;5047020;28;20398;-84
2021/01/06 06:23:56;;;;;;;;;;;;;;;;;;5057585;28;20443;-86
2021/01/06 06:26:22;;;;;;;;;;;;;;;;;;5047485;28;20415;-86
2021/01/06 06:28:49;;;;;;;;;;;;;;;;;;5044547;28;20378;-87
2021/01/06 06:31:15;;;;;;;;;;;;;;;;;;5045678;28;20391;-87
2021/01/06 06:33:41;;;;;;;;;;;;;;;;;;5046284;28;20391;-89
2021/01/06 06:36:08;;;;;;;;;;;;;;;;;;5051807;28;20407;-89
2021/01/06 06:38:34;;;;;;;;;;;;;;;;;;5050936;28;20411;-88
2021/01/06 06:41:02;;;;;;;;;;;;;;;;;;5048014;28;20391;-87
2021/01/06 06:43:28;;;;;;;;;;;;;;;;;;5046779;28;20393;-88
2021/01/06 06:45:55;;;;;;;;;;;;;;;;;;5045511;28;20426;-88
2021/01/06 06:48:21;;;;;;;;;;;;;;;;;;5042236;28;20390;-89
2021/01/06 06:50:48;;;;;;;;;;;;;;;;;;5042965;28;20394;-89
2021/01/06 06:53:15;;;;;;;;;;;;;;;;;;5042198;28;20383;-89
2021/01/06 06:55:42;;;;;;;;;;;;;;;;;;5041748;28;20425;-89
2021/01/06 06:58:08;;;;;;;;;;;;;;;;;;5041235;28;20383;-89
2021/01/06 07:00:35;;;;;;;;;;;;;;;;;;5041339;28;20478;-89
2021/01/06 07:03:01;;;;;;;;;;;;;;;;;;5041589;28;20393;-88
2021/01/06 07:05:28;;;;;;;;;;;;;;;;;;5031145;28;20479;-88
2021/01/06 07:08:07;;;;;;;;;;;;;;;;;;;;;
2021/01/06 07:10:35;;;;;;;;;;;;;;;;;;5025735;28;20490;-88
2021/01/06 07:13:02;;;;;;;;;;;;;;;;;;5030748;28;20384;-88
2021/01/06 07:15:28;;;;;;;;;;;;;;;;;;5029162;28;20417;-88
2021/01/06 07:17:55;;;;;;;;;;;;;;;;;;5030175;28;20375;-87
2021/01/06 07:20:21;;;;;;;;;;;;;;;;;;5050899;28;20395;-86
2021/01/06 07:22:47;;;;;;;;;;;;;;;;;;5040601;28;20382;-86
2021/01/06 07:25:14;;;;;;;;;;;;;;;;;;5040112;28;20400;-88
2021/01/06 07:27:40;;;;;;;;;;;;;;;;;;5025478;28;20381;-88
2021/01/06 07:30:08;;;;;;;;;;;;;;;;;;5033550;28;20393;-88
2021/01/06 07:32:36;;;;;;;;;;;;;;;;;;5043811;28;20867;-89
2021/01/06 07:35:02;;;;;;;;;;;;;;;;;;5042997;28;20449;-86
2021/01/06 07:37:28;;;;;;;;;;;;;;;;;;5049139;28;20418;-88
2021/01/06 07:39:56;;;;;;;;;;;;;;;;;;5048382;28;21771;-87
2021/01/06 07:42:22;;;;;;;;;;;;;;;;;;5041066;28;20402;-87
2021/01/06 07:44:50;;;;;;;;;;;;;;;;;;5042315;28;20902;-85
2021/01/06 07:47:16;;;;;;;;;;;;;;;;;;5041630;28;20391;-88
2021/01/06 07:49:43;;;;;;;;;;;;;;;;;;5043295;28;20391;-88
2021/01/06 07:52:09;;;;;;;;;;;;;;;;;;5042776;28;20391;-88
2021/01/06 07:54:36;;;;;;;;;;;;;;;;;;5044006;28;20415;-87
2021/01/06 07:57:02;;;;;;;;;;;;;;;;;;5058008;28;20412;-86
2021/01/06 07:59:29;;;;;;;;;;;;;;;;;;5056600;28;20407;-86
2021/01/06 08:01:55;;;;;;;;;;;;;;;;;;5042092;28;20406;-86
2021/01/06 08:04:21;;;;;;;;;;;;;;;;;;5040349;28;20942;-88
2021/01/06 08:06:48;;;;;;;;;;;;;;;;;;5041428;28;20375;-87
2021/01/06 08:09:14;;;;;;;;;;;;;;;;;;5036535;28;20375;-86
2021/01/06 08:11:41;;;;;;;;;;;;;;;;;;5039639;28;20393;-86
2021/01/06 08:14:07;;;;;;;;;;;;;;;;;;5038607;28;20390;-86
2021/01/06 08:16:33;;;;;;;;;;;;;;;;;;5030232;28;20400;-86
2021/01/06 08:19:00;;;;;;;;;;;;;;;;;;5038303;28;20410;-85
2021/01/06 08:21:28;;;;;;;;;;;;;;;;;;5049819;28;20370;-84
2021/01/06 08:23:57;;;;;;;;;;;;;;;;;;5050413;28;20389;-83
2021/01/06 08:26:23;;;;;;;;;;;;;;;;;;5035461;28;20395;-86
2021/01/06 08:28:50;;;;;;;;;;;;;;;;;;5043677;28;20387;-85
2021/01/06 08:31:16;;;;;;;;;;;;;;;;;;5036590;28;20389;-83
2021/01/06 08:33:43;;;;;;;;;;;;;;;;;;5027678;28;20381;-83
2021/01/06 08:36:09;;;;;;;;;;;;;;;;;;5039222;28;20818;-82
2021/01/06 08:38:37;;;;;;;;;;;;;;;;;;5039161;28;20464;-85
2021/01/06 08:41:04;;;;;;;;;;;;;;;;;;5039664;28;20382;-84
2021/01/06 08:43:30;;;;;;;;;;;;;;;;;;5039513;28;20831;-83
2021/01/06 08:45:57;;;;;;;;;;;;;;;;;;5033198;28;20409;-85
2021/01/06 08:48:23;;;;;;;;;;;;;;;;;;5048393;28;20379;-83
2021/01/06 08:50:50;;;;;;;;;;;;;;;;;;5044469;28;20385;-86
2021/01/06 08:53:16;;;;;;;;;;;;;;;;;;5036991;28;20387;-84
2021/01/06 08:55:42;;;;;;;;;;;;;;;;;;5037361;28;20434;-84
2021/01/06 08:58:09;;;;;;;;;;;;;;;;;;5030727;28;20375;-85
2021/01/06 09:00:36;;;;;;;;;;;;;;;;;;5036992;28;20382;-84
2021/01/06 09:03:03;;;;;;;;;;;;;;;;;;5044364;28;20382;-85
2021/01/06 09:05:29;;;;;;;;;;;;;;;;;;5030799;28;20420;-83
2021/01/06 09:07:56;;;;;;;;;;;;;;;;;;5038996;28;20916;-83
2021/01/06 09:10:22;;;;;;;;;;;;;;;;;;5041146;28;20387;-86
2021/01/06 09:12:48;;;;;;;;;;;;;;;;;;5038730;28;20391;-87
2021/01/06 09:15:15;;;;;;;;;;;;;;;;;;5044649;28;20416;-84
2021/01/06 09:17:41;;;;;;;;;;;;;;;;;;5047344;28;20381;-84
2021/01/06 09:20:08;;;;;;;;;;;;;;;;;;5055211;28;20484;-84
2021/01/06 09:22:34;;;;;;;;;;;;;;;;;;5041396;28;20433;-84
2021/01/06 09:25:00;;;;;;;;;;;;;;;;;;5044333;28;20426;-85
2021/01/06 09:27:27;;;;;;;;;;;;;;;;;;5041689;28;20847;-86
2021/01/06 09:29:53;;;;;;;;;;;;;;;;;;5036219;28;20394;-86
2021/01/06 09:32:20;;;;;;;;;;;;;;;;;;5041059;28;20392;-86
2021/01/06 09:34:47;;;;;;;;;;;;;;;;;;5043432;28;20407;-86
2021/01/06 09:37:14;;;;;;;;;;;;;;;;;;5036829;28;20406;-86
2021/01/06 09:39:40;;;;;;;;;;;;;;;;;;5041393;28;20402;-86
2021/01/06 09:42:07;;;;;;;;;;;;;;;;;;5040447;28;20391;-83
2021/01/06 09:44:34;;;;;;;;;;;;;;;;;;5034615;28;20405;-83
2021/01/06 09:47:02;;;;;;;;;;;;;;;;;;5035765;28;20401;-84
2021/01/06 09:49:28;;;;;;;;;;;;;;;;;;5037814;28;20475;-85
2021/01/06 09:51:55;;;;;;;;;;;;;;;;;;5040074;28;20389;-83
2021/01/06 09:54:21;;;;;;;;;;;;;;;;;;5043233;28;20414;-85
2021/01/06 09:56:47;;;;;;;;;;;;;;;;;;5035309;28;20447;-86
2021/01/06 09:59:14;;;;;;;;;;;;;;;;;;5033230;28;20406;-85
2021/01/06 10:01:40;;;;;;;;;;;;;;;;;;5039020;28;20395;-86
2021/01/06 10:04:07;;;;;;;;;;;;;;;;;;5040817;28;20379;-84
2021/01/06 10:06:33;;;;;;;;;;;;;;;;;;5034594;28;20391;-85
2021/01/06 10:08:59;;;;;;;;;;;;;;;;;;5036866;28;20386;-87
2021/01/06 10:11:27;;;;;;;;;;;;;;;;;;5037275;28;20743;-84
2021/01/06 10:13:54;;;;;;;;;;;;;;;;;;5039400;28;20502;-83
2021/01/06 10:16:21;;;;;;;;;;;;;;;;;;5035315;28;20411;-85
2021/01/06 10:18:47;;;;;;;;;;;;;;;;;;5040270;28;20414;-84
2021/01/06 10:21:14;;;;;;;;;;;;;;;;;;5048261;28;20794;-85
2021/01/06 10:23:40;;;;;;;;;;;;;;;;;;5037963;28;20386;-85
2021/01/06 10:26:07;;;;;;;;;;;;;;;;;;5045440;28;20422;-85
2021/01/06 10:28:33;;;;;;;;;;;;;;;;;;5050624;28;20382;-84
2021/01/06 10:30:59;;;;;;;;;;;;;;;;;;5045633;28;20397;-85
2021/01/06 10:33:26;;;;;;;;;;;;;;;;;;5050411;28;20379;-84
2021/01/06 10:35:53;;;;;;;;;;;;;;;;;;5044456;28;20418;-84
2021/01/06 10:38:21;;;;;;;;;;;;;;;;;;5039062;28;20375;-84
2021/01/06 10:40:47;;;;;;;;;;;;;;;;;;5043712;28;20382;-83
2021/01/06 10:43:14;;;;;;;;;;;;;;;;;;5043595;28;20387;-83
2021/01/06 10:45:40;;;;;;;;;;;;;;;;;;5037131;28;20405;-86
2021/01/06 10:48:07;;;;;;;;;;;;;;;;;;5042638;28;20399;-84
2021/01/06 10:50:33;;;;;;;;;;;;;;;;;;5043451;28;20375;-83
2021/01/06 10:52:59;;;;;;;;;;;;;;;;;;5042091;28;20386;-85
2021/01/06 10:55:26;;;;;;;;;;;;;;;;;;5042425;28;20464;-83
2021/01/06 10:57:53;;;;;;;;;;;;;;;;;;5042153;28;20375;-83
2021/01/06 11:00:19;;;;;;;;;;;;;;;;;;5044651;28;20415;-83
2021/01/06 11:02:46;;;;;;;;;;;;;;;;;;5052201;28;20383;-84
2021/01/06 11:05:12;;;;;;;;;;;;;;;;;;5047035;28;20409;-83
2021/01/06 11:07:39;;;;;;;;;;;;;;;;;;5046365;28;20382;-83
2021/01/06 11:10:06;;;;;;;;;;;;;;;;;;5040239;28;20363;-84
2021/01/06 11:12:32;;;;;;;;;;;;;;;;;;5043341;28;20473;-85
2021/01/06 11:14:59;;;;;;;;;;;;;;;;;;5044640;28;20411;-84
2021/01/06 11:17:25;;;;;;;;;;;;;;;;;;5040742;28;20378;-84
2021/01/06 11:19:51;;;;;;;;;;;;;;;;;;5041987;28;20801;-86
2021/01/06 11:22:18;;;;;;;;;;;;;;;;;;5041798;28;20393;-86
2021/01/06 11:24:44;;;;;;;;;;;;;;;;;;5037457;28;21373;-85
2021/01/06 11:27:11;;;;;;;;;;;;;;;;;;5041741;28;20950;-83
2021/01/06 11:29:38;;;;;;;;;;;;;;;;;;5041377;28;20390;-84
2021/01/06 11:32:04;;;;;;;;;;;;;;;;;;5035635;28;20379;-85
2021/01/06 11:34:31;;;;;;;;;;;;;;;;;;5040112;28;21102;-85
2021/01/06 11:36:58;;;;;;;;;;;;;;;;;;5040671;28;20386;-85
2021/01/06 11:39:25;;;;;;;;;;;;;;;;;;5040944;28;20402;-84
2021/01/06 11:41:51;;;;;;;;;;;;;;;;;;5040882;28;20452;-83
2021/01/06 11:44:18;;;;;;;;;;;;;;;;;;5040128;28;20862;-84
2021/01/06 11:46:45;;;;;;;;;;;;;;;;;;5041069;28;20394;-84
2021/01/06 11:49:12;;;;;;;;;;;;;;;;;;5044866;28;20380;-84
2021/01/06 11:51:38;;;;;;;;;;;;;;;;;;5045113;28;20450;-85
2021/01/06 11:54:05;;;;;;;;;;;;;;;;;;5038574;28;20843;-84
2021/01/06 11:56:31;;;;;;;;;;;;;;;;;;5040038;28;20391;-84
2021/01/06 11:58:57;;;;;;;;;;;;;;;;;;5033900;28;20410;-84
2021/01/06 12:01:24;;;;;;;;;;;;;;;;;;5040895;28;20835;-84
2021/01/06 12:03:50;;;;;;;;;;;;;;;;;;5041639;28;20397;-84
2021/01/06 12:06:17;;;;;;;;;;;;;;;;;;5051982;28;20403;-84
2021/01/06 12:08:43;;;;;;;;;;;;;;;;;;5045132;28;20387;-84
2021/01/06 12:11:10;;;;;;;;;;;;;;;;;;5042126;28;20371;-84
2021/01/06 12:16:20;;;;;;;;;;;;;;;;;;5041016;28;20432;-83
2021/01/06 12:21:29;;;;;;;;;;;;;;;;;;4975540;28;20386;-83
2021/01/06 12:26:40;;;;;;;;;;;;;;;;;;4971352;28;20413;-84
2021/01/06 12:29:06;;;;;;;;;;;;;;;;;;4960855;28;20413;-84
2021/01/06 12:31:33;;;;;;;;;;;;;;;;;;4968064;28;20413;-84
2021/01/06 12:36:41;;;;;;;;;;;;;;;;;;4924682;29;20415;-84
2021/01/06 12:39:08;;;;;;;;;;;;;;;;;;4930332;29;20414;-82
2021/01/06 12:41:34;;;;;;;;;;;;;;;;;;4928622;29;20403;-82
2021/01/06 12:44:01;;;;;;;;;;;;;;;;;;4926021;29;20497;-83
2021/01/06 12:46:27;;;;;;;;;;;;;;;;;;4922454;29;20848;-83
2021/01/06 12:48:54;;;;;;;;;;;;;;;;;;4922605;29;20411;-83
2021/01/06 12:56:48;;;;;;;;;;;;;;;;;;4865965;29;20441;-85
2021/01/06 13:24:06;;;;;;;;;;;;;;;;;;4872583;29;20453;-84
2021/01/06 13:34:53;;;;;;;;;;;;;;;;;;4900690;29;20435;-84
2021/01/06 13:37:38;;;;;;;;;;;;;;;;;;4911282;29;20496;-84
2021/01/06 13:40:04;;;;;;;;;;;;;;;;;;4925151;29;20430;-83
2021/01/06 13:42:31;;;;;;;;;;;;;;;;;;4907765;29;20398;-84
2021/01/06 13:44:57;;;;;;;;;;;;;;;;;;4907181;29;20480;-84
2021/01/06 13:47:24;;;;;;;;;;;;;;;;;;4912123;29;20399;-84
2021/01/06 13:49:50;;;;;;;;;;;;;;;;;;4917147;29;20421;-83
2021/01/06 13:57:56;;;;;;;;;;;;;;;;;;4872093;29;20400;-83
2021/01/06 14:00:23;;;;;;;;;;;;;;;;;;4881635;29;20437;-84
2021/01/06 14:02:49;;;;;;;;;;;;;;;;;;4886618;29;20408;-84
2021/01/06 14:05:15;;;;;;;;;;;;;;;;;;4873982;29;20468;-84
2021/01/06 14:07:42;;;;;;;;;;;;;;;;;;4880612;29;20503;-84
2021/01/06 14:10:08;;;;;;;;;;;;;;;;;;4876189;29;20406;-84
2021/01/06 14:12:35;;;;;;;;;;;;;;;;;;4903523;29;20437;-83
2021/01/06 14:15:01;;;;;;;;;;;;;;;;;;4912464;29;20923;-83
2021/01/06 14:17:28;;;;;;;;;;;;;;;;;;4907747;29;20406;-83
2021/01/06 14:19:54;;;;;;;;;;;;;;;;;;4917168;29;20414;-83
2021/01/06 14:22:22;;;;;;;;;;;;;;;;;;4916854;29;20402;-83
2021/01/06 14:24:48;;;;;;;;;;;;;;;;;;4920804;29;20427;-83
2021/01/06 14:27:14;;;;;;;;;;;;;;;;;;4919608;29;20406;-83
2021/01/06 14:29:41;;;;;;;;;;;;;;;;;;4933188;29;20411;-83
2021/01/06 14:32:07;;;;;;;;;;;;;;;;;;4994884;28;20389;-85
2021/01/06 14:34:52;;;;;;;;;;;;;;;;;;5039955;28;20420;-84
2021/01/06 14:40:03;;;;;;;;;;;;;;;;;;5039840;28;20444;-89
2021/01/06 14:42:29;;;;;;;;;;;;;;;;;;5050576;28;20734;-87
2021/01/06 14:44:56;;;;;;;;;;;;;;;;;;5045714;28;20414;-86
2021/01/06 14:47:22;;;;;;;;;;;;;;;;;;5052512;28;20387;-85
2021/01/06 14:49:49;;;;;;;;;;;;;;;;;;5047668;28;20450;-85
2021/01/06 14:52:15;;;;;;;;;;;;;;;;;;5033291;28;20382;-88
2021/01/06 14:54:44;;;;;;;;;;;;;;;;;;5030617;28;20418;-89
2021/01/06 14:57:10;;;;;;;;;;;;;;;;;;5035082;28;20371;-88
2021/01/06 14:59:37;;;;;;;;;;;;;;;;;;5037001;28;20403;-85
2021/01/06 15:02:04;;;;;;;;;;;;;;;;;;5045064;28;20394;-85
2021/01/06 15:04:30;;;;;;;;;;;;;;;;;;5041748;28;20453;-85
2021/01/06 15:06:56;;;;;;;;;;;;;;;;;;5045321;28;20843;-86
2021/01/06 15:09:23;;;;;;;;;;;;;;;;;;5036072;28;20389;-86
2021/01/06 15:11:49;;;;;;;;;;;;;;;;;;5039694;28;20398;-87
2021/01/06 15:14:15;;;;;;;;;;;;;;;;;;5042804;28;20387;-85
2021/01/06 15:16:42;;;;;;;;;;;;;;;;;;5049275;28;20371;-85
2021/01/06 15:19:08;;;;;;;;;;;;;;;;;;5046184;28;20433;-85
2021/01/06 15:21:35;;;;;;;;;;;;;;;;;;5041218;28;20393;-85
2021/01/06 15:24:01;;;;;;;;;;;;;;;;;;5037402;28;20400;-85
2021/01/06 15:26:28;;;;;;;;;;;;;;;;;;5033613;28;20406;-84
2021/01/06 15:28:54;;;;;;;;;;;;;;;;;;5041558;28;20383;-85
2021/01/06 15:31:21;;;;;;;;;;;;;;;;;;5039801;28;20410;-85
2021/01/06 15:33:47;;;;;;;;;;;;;;;;;;5040258;28;20387;-89
2021/01/06 15:36:13;;;;;;;;;;;;;;;;;;5040352;28;20406;-86
2021/01/06 15:38:40;;;;;;;;;;;;;;;;;;5031614;28;20383;-82
2021/01/06 15:41:06;;;;;;;;;;;;;;;;;;5044024;28;20395;-88
2021/01/06 15:43:33;;;;;;;;;;;;;;;;;;5047572;28;20391;-85
2021/01/06 15:45:59;;;;;;;;;;;;;;;;;;5047732;28;20414;-87
2021/01/06 15:48:25;;;;;;;;;;;;;;;;;;5042696;28;20407;-85
2021/01/06 15:50:52;;;;;;;;;;;;;;;;;;5039483;28;20440;-86
2021/01/06 15:59:16;;;;;;;;;;;;;;;;;;5033885;28;20466;-86
2021/01/06 16:01:48;;;;;;;;;;;;;;;;;;5026095;28;20748;-88
2021/01/06 16:04:14;;;;;;;;;;;;;;;;;;5028234;28;20386;-86
2021/01/06 16:06:40;;;;;;;;;;;;;;;;;;5028163;28;20386;-86
2021/01/06 16:11:55;;;;;;;;;;;;;;;;;;5032574;28;20441;-85
2021/01/06 16:14:22;;;;;;;;;;;;;;;;;;5038155;28;20820;-84
2021/01/06 16:16:48;;;;;;;;;;;;;;;;;;5031091;28;20379;-85
2021/01/06 16:19:14;;;;;;;;;;;;;;;;;;5037869;28;20445;-85
2021/01/06 16:21:41;;;;;;;;;;;;;;;;;;5035459;28;20386;-85
2021/01/06 16:24:07;;;;;;;;;;;;;;;;;;5031644;28;20420;-85
2021/01/06 16:26:34;;;;;;;;;;;;;;;;;;5037107;28;20391;-85
2021/01/06 16:29:00;;;;;;;;;;;;;;;;;;5037214;28;20391;-86
2021/01/06 16:31:26;;;;;;;;;;;;;;;;;;5021945;28;20404;-86
2021/01/06 16:33:53;;;;;;;;;;;;;;;;;;5031482;28;20391;-85
2021/01/06 16:36:19;;;;;;;;;;;;;;;;;;5038384;28;20453;-85
2021/01/06 16:38:45;;;;;;;;;;;;;;;;;;5036704;28;20389;-85
2021/01/06 16:41:12;;;;;;;;;;;;;;;;;;5037188;28;20399;-85
2021/01/06 16:43:38;;;;;;;;;;;;;;;;;;5037649;28;20762;-85
2021/01/06 16:46:05;;;;;;;;;;;;;;;;;;5031838;28;20410;-86
2021/01/06 16:48:31;;;;;;;;;;;;;;;;;;5024892;28;20388;-85
2021/01/06 16:50:57;;;;;;;;;;;;;;;;;;5018854;28;20396;-86
2021/01/06 16:53:24;;;;;;;;;;;;;;;;;;5017723;28;20413;-87
2021/01/06 16:55:51;;;;;;;;;;;;;;;;;;5023964;28;20409;-87
2021/01/06 16:58:17;;;;;;;;;;;;;;;;;;5036586;28;20416;-87
2021/01/06 17:00:44;;;;;;;;;;;;;;;;;;5037431;28;20394;-86
2021/01/06 17:03:10;;;;;;;;;;;;;;;;;;5037451;28;20750;-87
2021/01/06 17:05:36;;;;;;;;;;;;;;;;;;5037786;28;20414;-87
2021/01/06 17:08:03;;;;;;;;;;;;;;;;;;5037575;28;20391;-87
2021/01/06 17:10:29;;;;;;;;;;;;;;;;;;5037874;28;20379;-87
2021/01/06 17:12:56;;;;;;;;;;;;;;;;;;5034843;28;20901;-87
2021/01/06 17:15:22;;;;;;;;;;;;;;;;;;5037403;28;20414;-86
2021/01/06 17:17:49;;;;;;;;;;;;;;;;;;5038067;28;20385;-87
2021/01/06 17:20:15;;;;;;;;;;;;;;;;;;5037669;28;20402;-87
2021/01/06 17:22:41;;;;;;;;;;;;;;;;;;5038252;28;20391;-87
2021/01/06 17:25:08;;;;;;;;;;;;;;;;;;5038324;28;20406;-87
2021/01/06 17:27:36;;;;;;;;;;;;;;;;;;5039747;28;20387;-86
2021/01/06 17:30:02;;;;;;;;;;;;;;;;;;5044038;28;20383;-87
2021/01/06 17:32:28;;;;;;;;;;;;;;;;;;5043339;28;20391;-86
2021/01/06 17:34:55;;;;;;;;;;;;;;;;;;5033357;28;20813;-86
2021/01/06 17:37:21;;;;;;;;;;;;;;;;;;5039926;28;20416;-86
2021/01/06 17:39:47;;;;;;;;;;;;;;;;;;5045767;28;20429;-86
2021/01/06 17:42:14;;;;;;;;;;;;;;;;;;5045338;28;20397;-86
2021/01/06 17:44:40;;;;;;;;;;;;;;;;;;5037206;28;20402;-86
2021/01/06 17:47:07;;;;;;;;;;;;;;;;;;5038125;28;20838;-84